Time;durP1;ratioP1;P1;durP2;ratioP2;P2;SDS_P1;SDS_P2;PMS_P1;PMS_P2;Temp;Humidity;BMP_temperature;BMP_pressure;BME280_temperature;BME280_humidity;BME280_pressure;Samples;Min_cycle;Max_cycle;Signal;HPM_P1;HPM_P2
2022/06/10 00:00:42;;;;;;;26.23;17.52;;;;;;;19.52;68.23;98822.13;4973066;28;20125;-67
2022/06/10 00:03:09;;;;;;;34.78;17.35;;;;;;;19.49;68.14;98812.78;4956048;28;20046;-67
2022/06/10 00:05:36;;;;;;;16.30;12.85;;;;;;;19.49;68.58;98825.44;4973382;28;20134;-67
2022/06/10 00:08:10;;;;;;;22.02;13.95;;;;;;;19.45;68.94;98816.41;4972096;28;20046;-65
2022/06/10 00:10:36;;;;;;;24.35;13.88;;;;;;;19.41;69.16;98808.19;4954253;29;20051;-67
2022/06/10 00:13:02;;;;;;;19.48;13.63;;;;;;;19.39;69.29;98823.81;4969364;28;20177;-67
2022/06/10 00:15:28;;;;;;;18.15;12.85;;;;;;;19.35;69.98;98822.03;4972553;28;20059;-67
2022/06/10 00:17:55;;;;;;;21.00;13.98;;;;;;;19.30;70.55;98817.59;4955546;28;20512;-67
2022/06/10 00:20:25;;;;;;;21.23;13.88;;;;;;;19.26;70.71;98822.78;4973148;28;20158;-67
2022/06/10 00:22:51;;;;;;;19.20;14.52;;;;;;;19.21;70.82;98824.84;4955893;28;20133;-67
2022/06/10 00:25:19;;;;;;;17.35;11.82;;;;;;;19.13;71.43;98822.88;4972592;28;20062;-67
2022/06/10 00:27:46;;;;;;;15.13;11.93;;;;;;;19.06;71.54;98831.38;4972929;28;20093;-68
2022/06/10 00:30:13;;;;;;;17.63;12.23;;;;;;;19.00;71.67;98838.78;4955501;28;20106;-68
2022/06/10 00:32:39;;;;;;;19.73;12.82;;;;;;;18.99;70.38;98831.00;4972854;28;20042;-67
2022/06/10 00:35:05;;;;;;;18.17;11.95;;;;;;;19.03;70.90;98835.47;4972236;28;20073;-66
2022/06/10 00:37:31;;;;;;;22.58;17.90;;;;;;;19.03;71.25;98831.97;4972065;28;20046;-66
2022/06/10 00:39:57;;;;;;;22.67;18.83;;;;;;;19.10;70.01;98840.41;4954891;28;20046;-67
2022/06/10 00:42:23;;;;;;;18.85;16.70;;;;;;;19.14;70.22;98841.38;4972877;28;20378;-67
2022/06/10 00:44:54;;;;;;;23.08;17.75;;;;;;;19.19;70.34;98848.53;4955075;28;20042;-66
2022/06/10 00:47:23;;;;;;;17.25;13.60;;;;;;;19.19;69.68;98849.31;4938936;28;20042;-67
2022/06/10 00:49:59;;;;;;;17.27;13.95;;;;;;;19.17;70.85;98859.56;4972476;28;20051;-67
2022/06/10 00:52:31;;;;;;;24.90;14.10;;;;;;;19.14;70.73;98860.16;4955252;28;20448;-67
2022/06/10 00:54:57;;;;;;;19.10;13.35;;;;;;;19.14;70.78;98872.81;4972225;28;20448;-68
2022/06/10 00:57:27;;;;;;;15.48;12.98;;;;;;;19.14;70.08;98881.66;4971746;28;20611;-67
2022/06/10 01:00:15;;;;;;;17.45;14.18;;;;;;;19.17;69.71;98880.25;4946123;28;20053;-66
2022/06/10 01:02:42;;;;;;;13.98;12.43;;;;;;;19.18;69.48;98877.28;4972639;28;20074;-68
2022/06/10 01:05:27;;;;;;;18.17;12.52;;;;;;;19.24;69.15;98878.75;4972449;28;20051;-68
2022/06/10 01:08:00;;;;;;;16.02;12.07;;;;;;;19.22;68.79;98872.88;4938856;28;20568;-68
2022/06/10 01:10:27;;;;;;;12.98;10.70;;;;;;;19.25;68.12;98863.41;4972479;28;20043;-67
2022/06/10 01:13:15;;;;;;;11.05;9.90;;;;;;;19.28;67.71;98855.53;4955248;28;20038;-66
2022/06/10 01:15:57;;;;;;;10.95;9.68;;;;;;;19.33;67.32;98854.59;4971817;28;20059;-66
2022/06/10 01:18:32;;;;;;;11.20;9.95;;;;;;;19.38;67.29;98853.66;4954403;28;20070;-67
2022/06/10 01:21:20;;;;;;;14.43;11.38;;;;;;;19.49;67.39;98857.69;4971971;28;20492;-67
2022/06/10 01:23:52;;;;;;;17.85;15.10;;;;;;;19.73;68.22;98860.81;4955088;28;20141;-67
2022/06/10 01:27:47;;;;;;;19.92;17.20;;;;;;;19.80;67.99;98851.53;4972331;28;20109;-67
2022/06/10 01:29:37;;;;;;;19.38;16.15;;;;;;;19.81;67.33;98867.34;4972013;28;20539;-68
2022/06/10 01:32:09;;;;;;;18.35;16.35;;;;;;;19.82;66.84;98862.75;4972333;28;20483;-66
2022/06/10 01:34:52;;;;;;;21.40;14.93;;;;;;;19.83;66.57;98864.34;4954563;28;20070;-66
2022/06/10 01:37:50;;;;;;;16.13;13.90;;;;;;;19.84;67.53;98865.94;4954114;28;20041;-66
2022/06/10 01:40:24;;;;;;;12.65;10.82;;;;;;;19.99;66.48;98868.19;4951173;28;20053;-67
2022/06/10 01:43:06;;;;;;;14.05;10.57;;;;;;;20.42;64.59;98865.59;4972243;28;20047;-67
2022/06/10 01:46:03;;;;;;;14.75;11.05;;;;;;;20.96;62.50;98869.91;4938705;28;20393;-67
2022/06/10 01:48:34;;;;;;;12.32;11.02;;;;;;;21.30;61.19;98872.56;4950421;28;20073;-67
2022/06/10 01:51:11;;;;;;;15.20;13.70;;;;;;;21.86;59.85;98869.06;4941428;28;20053;-66
2022/06/10 01:53:42;;;;;;;17.52;14.93;;;;;;;22.27;58.79;98871.09;4958481;28;20070;-67
2022/06/10 01:56:35;;;;;;;18.67;16.65;;;;;;;22.51;58.31;98869.66;4958371;28;20054;-67
2022/06/10 01:59:07;;;;;;;23.75;19.63;;;;;;;22.81;57.57;98867.69;4957529;28;20049;-66
2022/06/10 02:01:36;;;;;;;18.77;16.42;;;;;;;23.00;57.35;98870.72;4958158;28;20093;-67
2022/06/10 02:04:22;;;;;;;17.15;14.30;;;;;;;22.77;57.34;98877.56;4958227;28;20038;-67
2022/06/10 02:07:08;;;;;;;15.40;12.70;;;;;;;22.35;58.30;98874.84;4957776;28;20055;-67
2022/06/10 02:09:37;;;;;;;13.30;11.02;;;;;;;22.06;59.41;98868.34;4975170;28;20057;-68
2022/06/10 02:12:10;;;;;;;12.95;9.85;;;;;;;21.92;59.48;98879.34;4958327;28;20035;-67
2022/06/10 02:14:39;;;;;;;16.98;11.15;;;;;;;21.76;60.31;98879.09;4938109;29;20086;-67
2022/06/10 02:17:06;;;;;;;11.57;10.35;;;;;;;21.88;60.60;98883.00;4938820;28;20091;-67
2022/06/10 02:19:37;;;;;;;15.77;11.30;;;;;;;21.98;59.94;98880.75;4975010;28;20039;-67
2022/06/10 02:22:10;;;;;;;14.15;11.20;;;;;;;22.00;59.89;98877.72;4957881;28;20065;-67
2022/06/10 02:24:40;;;;;;;13.45;10.68;;;;;;;22.01;60.79;98884.72;4941474;28;20480;-67
2022/06/10 02:27:11;;;;;;;10.60;9.02;;;;;;;21.77;60.14;98885.28;4974703;28;20043;-68
2022/06/10 02:29:45;;;;;;;11.32;9.20;;;;;;;21.60;60.47;98888.06;4974701;28;20086;-69
2022/06/10 02:32:11;;;;;;;11.25;9.75;;;;;;;21.47;61.18;98895.22;4958138;28;20053;-67
2022/06/10 02:34:37;;;;;;;11.80;10.02;;;;;;;21.73;60.98;98890.53;4941182;28;20046;-67
2022/06/10 02:37:12;;;;;;;12.07;10.20;;;;;;;21.89;60.26;98882.69;4974533;28;20043;-67
2022/06/10 02:39:55;;;;;;;12.45;9.75;;;;;;;22.44;58.88;98881.78;4973907;28;20242;-66
2022/06/10 02:42:24;;;;;;;12.35;10.20;;;;;;;23.15;57.58;98885.53;4938232;28;20445;-68
2022/06/10 02:45:12;;;;;;;12.98;9.95;;;;;;;23.80;55.25;98885.81;4963464;28;20130;-67
2022/06/10 02:48:06;;;;;;;12.80;9.13;;;;;;;24.28;53.79;98886.13;4957288;28;20090;-67
2022/06/10 02:50:32;;;;;;;10.57;9.32;;;;;;;24.69;53.05;98885.06;4956708;28;20055;-67
2022/06/10 02:52:58;;;;;;;12.30;9.95;;;;;;;25.11;52.01;98879.22;4974628;28;20035;-67
2022/06/10 02:55:26;;;;;;;14.57;9.93;;;;;;;25.59;50.58;98891.78;4956697;28;20109;-68
2022/06/10 03:01:16;;;;;;;10.85;9.75;;;;;;;26.15;48.56;98890.00;4973437;28;20093;-68
2022/06/10 03:03:48;;;;;;;12.40;11.00;;;;;;;26.15;48.19;98895.44;4973912;28;20105;-67
2022/06/10 03:06:21;;;;;;;11.18;9.98;;;;;;;25.72;49.01;98902.56;4957283;28;20065;-67
2022/06/10 03:08:53;;;;;;;10.80;9.52;;;;;;;25.13;50.02;98898.66;4956565;28;20042;-67
2022/06/10 03:11:39;;;;;;;11.38;10.10;;;;;;;24.54;51.28;98902.81;4956586;28;20062;-67
2022/06/10 03:14:43;;;;;;;15.38;11.50;;;;;;;24.30;52.56;98906.31;4956609;28;20035;-67
2022/06/10 03:17:33;;;;;;;14.07;9.70;;;;;;;24.12;53.39;98900.34;4957285;28;20054;-68
2022/06/10 03:20:11;;;;;;;14.65;9.88;;;;;;;24.05;53.85;98897.41;4973946;28;20051;-66
2022/06/10 03:22:48;;;;;;;11.38;10.23;;;;;;;23.98;53.63;98903.41;4973612;28;20412;-66
2022/06/10 03:25:20;;;;;;;14.00;9.90;;;;;;;23.88;54.33;98903.03;4973999;28;20058;-67
2022/06/10 03:28:34;;;;;;;10.98;9.90;;;;;;;23.93;54.34;98903.63;4974178;28;20126;-67
2022/06/10 03:31:09;;;;;;;13.30;10.23;;;;;;;24.14;53.39;98900.00;4971908;28;20528;-67
2022/06/10 03:33:41;;;;;;;11.82;10.07;;;;;;;24.33;53.42;98896.72;4956723;28;20038;-67
2022/06/10 03:36:16;;;;;;;11.35;10.30;;;;;;;24.73;52.38;98902.19;4956085;28;20051;-67
2022/06/10 03:38:44;;;;;;;11.02;9.82;;;;;;;24.90;51.48;98904.63;4973274;28;20048;-67
2022/06/10 03:41:22;;;;;;;12.27;10.90;;;;;;;25.30;51.14;98900.31;4956348;28;20094;-67
2022/06/10 03:43:51;;;;;;;11.40;9.73;;;;;;;25.69;50.17;98906.75;4973573;28;20038;-67
2022/06/10 03:46:18;;;;;;;12.80;9.85;;;;;;;26.03;49.01;98896.31;4973575;28;20074;-67
2022/06/10 03:48:45;;;;;;;10.38;8.88;;;;;;;26.21;47.97;98908.41;4955752;28;20508;-67
2022/06/10 03:51:12;;;;;;;10.43;9.38;;;;;;;26.29;48.33;98907.41;4973490;28;20051;-66
2022/06/10 03:53:38;;;;;;;11.18;9.15;;;;;;;26.15;48.65;98907.13;4955752;28;20066;-68
2022/06/10 03:56:04;;;;;;;11.27;9.98;;;;;;;26.14;48.64;98905.53;4972864;28;20089;-68
2022/06/10 03:58:29;;;;;;;12.35;9.60;;;;;;;26.18;48.62;98905.63;4973619;28;20043;-67
2022/06/10 04:00:58;;;;;;;11.63;10.30;;;;;;;26.36;48.02;98908.75;4972871;28;20333;-67
2022/06/10 04:03:24;;;;;;;10.90;9.80;;;;;;;26.46;47.78;98917.13;4973169;28;20043;-68
2022/06/10 04:05:50;;;;;;;10.80;9.68;;;;;;;26.31;48.41;98912.50;4973162;28;20065;-67
2022/06/10 04:08:16;;;;;;;11.07;9.95;;;;;;;26.40;48.28;98915.81;4973043;28;20097;-68
2022/06/10 04:10:41;;;;;;;11.32;10.13;;;;;;;26.31;48.87;98914.44;4972657;28;20078;-67
2022/06/10 04:13:07;;;;;;;13.68;10.23;;;;;;;26.24;48.83;98913.16;4972817;28;20034;-68
2022/06/10 04:15:33;;;;;;;11.60;10.40;;;;;;;26.05;48.82;98907.63;4972314;28;20347;-66
2022/06/10 04:17:59;;;;;;;12.43;9.98;;;;;;;26.01;49.11;98912.22;4973162;28;20453;-68
2022/06/10 04:20:31;;;;;;;11.55;10.35;;;;;;;26.16;48.99;98910.63;4972226;28;20050;-67
2022/06/10 04:22:57;;;;;;;12.10;9.63;;;;;;;26.54;48.42;98918.09;4973021;28;20135;-67
2022/06/10 04:25:24;;;;;;;11.30;10.18;;;;;;;26.68;47.60;98914.91;4972823;28;20578;-67
2022/06/10 04:27:49;;;;;;;10.52;9.52;;;;;;;26.73;47.87;98918.09;4972720;28;20520;-67
2022/06/10 04:30:28;;;;;;;12.27;10.77;;;;;;;26.81;47.46;98912.84;4972365;28;20054;-67
2022/06/10 04:32:54;;;;;;;12.07;10.60;;;;;;;26.60;47.59;98921.31;4972986;28;20049;-66
2022/06/10 04:35:20;;;;;;;11.05;9.90;;;;;;;26.54;47.20;98925.47;4972323;28;20046;-67
2022/06/10 04:37:48;;;;;;;11.90;9.98;;;;;;;26.65;46.97;98921.84;4972612;28;20035;-67
2022/06/10 04:40:19;;;;;;;11.18;10.07;;;;;;;26.44;47.08;98924.84;4972226;28;20054;-67
2022/06/10 04:42:46;;;;;;;11.63;10.45;;;;;;;26.25;47.37;98917.44;4972646;28;20043;-67
2022/06/10 04:45:12;;;;;;;12.20;10.60;;;;;;;26.39;47.13;98913.47;4972342;28;20050;-66
2022/06/10 04:47:38;;;;;;;11.57;10.38;;;;;;;26.70;46.65;98918.03;4955194;28;20074;-67
2022/06/10 04:50:05;;;;;;;13.00;10.90;;;;;;;26.83;46.08;98910.56;4939196;28;20126;-67
2022/06/10 04:52:31;;;;;;;12.55;10.65;;;;;;;27.16;45.93;98919.00;4972376;28;20042;-67
2022/06/10 04:54:57;;;;;;;11.82;10.73;;;;;;;26.70;46.74;98915.31;4954479;28;20053;-67
2022/06/10 04:57:22;;;;;;;12.25;11.00;;;;;;;26.36;47.30;98908.75;4971484;28;20038;-67
2022/06/10 04:59:48;;;;;;;11.93;10.50;;;;;;;26.26;47.82;98912.78;4971061;28;20043;-66
2022/06/10 05:02:14;;;;;;;11.82;10.63;;;;;;;26.24;47.83;98923.22;4954979;28;20046;-68
2022/06/10 05:04:40;;;;;;;12.35;10.60;;;;;;;26.25;48.38;98916.66;4938455;28;20504;-68
2022/06/10 05:07:06;;;;;;;12.77;10.80;;;;;;;26.22;48.35;98931.72;4972283;28;20575;-66
2022/06/10 05:09:31;;;;;;;13.90;10.60;;;;;;;26.04;48.87;98925.88;4971871;28;20055;-68
2022/06/10 05:11:57;;;;;;;11.35;10.35;;;;;;;25.91;49.26;98929.81;4953515;28;20464;-66
2022/06/10 05:14:23;;;;;;;12.23;11.05;;;;;;;25.93;49.42;98926.75;4937137;28;20141;-67
2022/06/10 05:16:49;;;;;;;13.13;11.32;;;;;;;25.85;50.28;98942.06;4970388;28;20458;-67
2022/06/10 05:19:14;;;;;;;14.27;10.70;;;;;;;25.98;49.42;98938.13;4953145;28;20069;-66
2022/06/10 05:21:40;;;;;;;13.00;11.65;;;;;;;25.88;49.57;98935.16;4971604;28;20045;-72
2022/06/10 05:24:06;;;;;;;14.50;11.43;;;;;;;25.89;49.74;98936.75;4955012;28;20049;-66
2022/06/10 05:26:32;;;;;;;12.77;11.57;;;;;;;25.82;49.90;98940.88;4975896;28;20050;-67
2022/06/10 05:28:59;;;;;;;12.90;11.60;;;;;;;25.83;50.07;98945.16;4975888;28;20090;-68
2022/06/10 05:31:25;;;;;;;12.80;11.50;;;;;;;25.72;50.70;98946.75;4958662;28;20131;-67
2022/06/10 05:36:35;;;;;;;11.88;10.68;;;;;;;25.35;51.12;98932.59;4957598;28;20055;-67
2022/06/10 05:39:02;;;;;;;12.63;11.20;;;;;;;25.36;51.36;98936.91;4975262;28;20039;-68
2022/06/10 05:44:12;;;;;;;12.43;11.13;;;;;;;24.83;51.94;98928.06;4956166;28;20047;-67
2022/06/10 05:46:37;;;;;;;13.05;11.85;;;;;;;24.71;52.33;98928.88;4944465;28;20042;-67
2022/06/10 05:49:03;;;;;;;13.00;11.68;;;;;;;24.73;52.10;98929.28;4975066;28;20043;-69
2022/06/10 05:51:29;;;;;;;12.90;11.70;;;;;;;24.86;52.07;98921.94;4957667;28;20047;-67
2022/06/10 05:53:54;;;;;;;13.95;12.38;;;;;;;24.86;51.56;98930.84;4975018;28;20401;-65
2022/06/10 05:56:20;;;;;;;13.05;11.85;;;;;;;24.74;52.74;98930.06;4974828;28;20051;-67
2022/06/10 05:58:46;;;;;;;13.25;11.85;;;;;;;24.68;52.37;98934.97;4975034;28;20046;-66
2022/06/10 06:01:12;;;;;;;12.68;11.35;;;;;;;24.62;53.01;98942.53;4975214;28;20047;-67
2022/06/10 06:03:38;;;;;;;13.18;11.95;;;;;;;24.65;52.65;98941.06;4974030;28;20451;-67
2022/06/10 06:06:04;;;;;;;13.05;11.73;;;;;;;24.74;52.27;98935.50;4957740;28;20610;-67
2022/06/10 06:08:30;;;;;;;13.02;11.48;;;;;;;24.95;50.94;98940.78;4957540;28;20054;-68
2022/06/10 06:10:55;;;;;;;14.20;11.13;;;;;;;25.07;50.66;98927.16;4975010;28;20393;-67
2022/06/10 06:13:21;;;;;;;14.63;11.23;;;;;;;25.35;50.85;98935.31;4974195;28;20046;-70
2022/06/10 06:15:47;;;;;;;12.20;10.98;;;;;;;25.33;51.49;98946.53;4974420;28;20061;-68
2022/06/10 06:18:13;;;;;;;11.05;9.88;;;;;;;25.08;48.82;98950.44;4956953;28;20039;-67
2022/06/10 06:20:39;;;;;;;12.15;10.15;;;;;;;25.03;49.85;98951.47;4974540;28;20035;-66
2022/06/10 06:23:05;;;;;;;17.75;11.18;;;;;;;25.16;49.33;98949.53;4956687;28;20133;-67
2022/06/10 06:25:31;;;;;;;13.30;10.38;;;;;;;25.23;49.23;98949.72;4974475;28;20134;-68
2022/06/10 06:27:58;;;;;;;10.98;9.88;;;;;;;25.39;47.97;98947.06;4957349;28;20194;-67
2022/06/10 06:30:31;;;;;;;11.00;9.90;;;;;;;25.53;47.47;98946.63;4957052;28;20043;-67
2022/06/10 06:33:03;;;;;;;11.98;10.52;;;;;;;25.51;47.70;98957.06;4940895;28;20571;-66
2022/06/10 06:35:30;;;;;;;10.93;9.40;;;;;;;25.24;47.16;98951.31;4973883;28;20043;-67
2022/06/10 06:37:56;;;;;;;11.00;9.90;;;;;;;25.46;47.25;98947.25;4940669;28;20452;-67
2022/06/10 06:40:22;;;;;;;11.48;10.30;;;;;;;25.55;47.03;98947.09;4973918;28;20340;-68
2022/06/10 06:42:48;;;;;;;10.20;9.20;;;;;;;25.08;48.02;98950.44;4973873;28;20049;-68
2022/06/10 06:45:15;;;;;;;15.25;9.95;;;;;;;24.95;48.10;98941.56;4974314;28;20190;-67
2022/06/10 06:47:40;;;;;;;10.68;9.20;;;;;;;24.79;48.73;98937.97;4974183;28;20042;-67
2022/06/10 06:50:08;;;;;;;10.90;9.45;;;;;;;24.62;48.66;98942.53;4974091;28;20286;-68
2022/06/10 06:52:34;;;;;;;10.50;9.48;;;;;;;24.67;48.18;98949.63;4974069;28;20587;-66
2022/06/10 06:54:59;;;;;;;10.57;9.48;;;;;;;24.78;47.91;98939.91;4974038;28;20126;-67
2022/06/10 06:57:28;;;;;;;11.02;9.38;;;;;;;24.91;47.27;98933.34;4956304;28;20054;-68
2022/06/10 07:00:02;;;;;;;11.00;8.93;;;;;;;24.86;47.89;98946.34;4973817;28;20046;-67
2022/06/10 07:02:28;;;;;;;11.52;9.48;;;;;;;24.86;48.34;98941.69;4973774;28;20077;-67
2022/06/10 07:04:53;;;;;;;10.27;9.00;;;;;;;24.96;47.56;98945.84;4973390;28;20078;-66
2022/06/10 07:07:19;;;;;;;9.40;8.48;;;;;;;24.98;47.21;98945.50;4956375;28;20102;-67
2022/06/10 07:09:45;;;;;;;9.70;8.60;;;;;;;24.89;47.26;98940.22;4945748;28;20507;-67
2022/06/10 07:12:10;;;;;;;11.15;8.27;;;;;;;24.68;47.86;98948.53;4986755;28;20049;-67
2022/06/10 07:14:36;;;;;;;11.13;8.55;;;;;;;24.76;46.53;98941.38;4984431;28;20097;-66
2022/06/10 07:17:02;;;;;;;10.52;9.07;;;;;;;24.83;46.85;98947.03;4973268;28;20054;-66
2022/06/10 07:19:27;;;;;;;10.15;9.00;;;;;;;24.99;47.99;98942.44;4955689;28;20042;-66
2022/06/10 07:21:53;;;;;;;9.88;8.70;;;;;;;25.07;46.70;98944.22;4956118;28;20093;-68
2022/06/10 07:24:19;;;;;;;14.70;9.73;;;;;;;25.13;45.73;98950.19;4972994;28;20435;-66
2022/06/10 07:26:44;;;;;;;10.45;8.57;;;;;;;25.26;45.11;98940.09;4970662;28;20059;-68
2022/06/10 07:29:10;;;;;;;11.32;8.63;;;;;;;25.26;44.81;98949.03;4972593;28;20042;-67
2022/06/10 07:31:39;;;;;;;11.85;8.20;;;;;;;25.04;44.88;98944.13;4967575;28;20077;-67
2022/06/10 07:34:06;;;;;;;9.30;8.40;;;;;;;25.06;46.09;98955.41;4976352;28;20062;-68
2022/06/10 07:36:32;;;;;;;9.43;7.90;;;;;;;25.02;45.68;98949.88;4954284;28;20047;-66
2022/06/10 07:38:58;;;;;;;12.93;8.30;;;;;;;25.07;43.17;98944.22;4972315;28;20046;-67
2022/06/10 07:44:08;;;;;;;11.82;8.30;;;;;;;25.11;44.03;98947.81;4973076;28;20578;-67
2022/06/10 07:46:34;;;;;;;9.35;8.35;;;;;;;24.84;44.19;98959.44;4954682;28;20055;-66
2022/06/10 07:48:59;;;;;;;9.63;7.93;;;;;;;24.63;45.03;98946.81;4972267;28;20038;-67
2022/06/10 07:51:25;;;;;;;9.68;7.47;;;;;;;24.74;43.85;98943.63;4973186;28;20065;-67
2022/06/10 07:53:51;;;;;;;12.88;8.00;;;;;;;24.82;43.05;98950.84;4972399;28;20094;-67
2022/06/10 07:56:20;;;;;;;8.13;7.20;;;;;;;24.69;42.63;98942.75;4972309;28;20134;-68
2022/06/10 07:58:47;;;;;;;8.63;7.25;;;;;;;24.76;43.44;98944.09;4972060;28;20503;-67
2022/06/10 08:01:13;;;;;;;8.35;7.65;;;;;;;24.66;42.58;98939.94;4971903;28;20567;-66
2022/06/10 08:03:39;;;;;;;7.88;7.07;;;;;;;24.65;41.40;98939.16;4954618;28;20555;-66
2022/06/10 08:06:05;;;;;;;10.43;7.45;;;;;;;24.83;39.23;98942.38;4971142;28;20051;-68
2022/06/10 08:08:30;;;;;;;13.13;7.68;;;;;;;24.91;40.32;98943.38;4954320;28;20530;-68
2022/06/10 08:10:57;;;;;;;7.80;6.97;;;;;;;24.82;42.69;98940.78;4970859;28;20074;-68
2022/06/10 08:13:24;;;;;;;11.23;7.65;;;;;;;24.70;42.68;98933.47;4954487;28;20125;-68
2022/06/10 08:15:49;;;;;;;10.07;7.28;;;;;;;24.70;41.57;98938.13;4970970;28;20067;-67
2022/06/10 08:18:18;;;;;;;8.80;7.00;;;;;;;24.80;41.59;98929.53;4970998;28;20039;-66
2022/06/10 08:23:30;;;;;;;8.45;7.50;;;;;;;24.87;41.13;98931.63;4971058;28;20128;-66
2022/06/10 08:25:57;;;;;;;8.32;7.07;;;;;;;24.87;41.29;98939.78;4971106;28;20165;-71
2022/06/10 08:28:23;;;;;;;9.65;6.80;;;;;;;24.75;39.79;98940.59;4953988;28;20189;-71
2022/06/10 08:30:49;;;;;;;7.60;6.90;;;;;;;24.76;40.13;98935.97;4971413;28;20066;-71
2022/06/10 08:33:15;;;;;;;10.20;7.15;;;;;;;24.87;40.02;98928.94;4954033;28;20440;-73
2022/06/10 08:35:41;;;;;;;7.75;6.38;;;;;;;24.85;38.11;98931.19;4954180;28;20504;-71
2022/06/10 08:38:10;;;;;;;7.25;6.55;;;;;;;24.83;39.34;98945.09;4970120;28;20519;-71
2022/06/10 08:40:39;;;;;;;8.20;7.20;;;;;;;24.93;38.80;98951.94;4953117;28;20540;-71
2022/06/10 08:43:43;;;;;;;7.97;7.10;;;;;;;24.95;39.11;98943.50;4971092;28;20049;-71
2022/06/10 08:46:14;;;;;;;7.35;6.65;;;;;;;25.08;38.89;98943.09;4921282;28;20061;-72
2022/06/10 08:48:59;;;;;;;7.45;6.35;;;;;;;25.23;38.99;98936.16;4954035;28;20479;-71
2022/06/10 08:51:40;;;;;;;12.13;6.70;;;;;;;25.46;36.39;98941.03;4954113;28;20467;-73
2022/06/10 08:54:13;;;;;;;9.18;5.57;;;;;;;25.40;35.36;98945.91;4953935;28;20510;-72
2022/06/10 08:56:47;;;;;;;7.32;6.60;;;;;;;25.35;35.99;98938.84;4970653;28;20051;-73
2022/06/10 08:59:25;;;;;;;15.63;6.60;;;;;;;25.48;36.82;98941.50;4937399;28;20118;-72
2022/06/10 09:02:15;;;;;;;9.73;6.63;;;;;;;25.35;37.70;98938.84;4970028;28;20048;-72
2022/06/10 09:04:52;;;;;;;9.85;6.90;;;;;;;25.56;36.91;98940.50;4971445;28;20043;-72
2022/06/10 09:07:33;;;;;;;6.90;6.20;;;;;;;25.60;37.43;98935.97;4954125;28;20050;-72
2022/06/10 09:10:00;;;;;;;10.10;7.60;;;;;;;25.54;37.67;98942.81;4953604;28;20058;-71
2022/06/10 09:12:48;;;;;;;7.70;6.75;;;;;;;25.56;37.65;98937.81;4970336;28;20524;-73
2022/06/10 09:15:15;;;;;;;9.33;6.90;;;;;;;25.52;38.03;98937.72;4963497;28;20062;-73
2022/06/10 09:17:44;;;;;;;7.10;6.40;;;;;;;25.53;37.64;98939.31;4952351;28;20290;-72
2022/06/10 09:20:19;;;;;;;8.10;6.43;;;;;;;25.59;37.79;98946.06;4970240;28;20035;-71
2022/06/10 09:23:25;;;;;;;10.15;7.03;;;;;;;25.59;38.35;98942.56;4970824;28;20401;-71
2022/06/10 09:25:55;;;;;;;8.95;6.30;;;;;;;25.36;38.02;98948.53;4937407;28;20053;-71
2022/06/10 09:28:22;;;;;;;7.50;6.43;;;;;;;25.28;38.42;98938.63;4937012;28;20587;-73
2022/06/10 09:30:59;;;;;;;12.65;6.75;;;;;;;25.15;38.19;98929.75;4953021;28;20047;-71
2022/06/10 09:33:49;;;;;;;11.95;7.72;;;;;;;25.10;39.22;98940.03;4937230;28;20053;-71
2022/06/10 09:36:25;;;;;;;10.75;7.78;;;;;;;25.15;37.61;98942.53;4969552;28;20054;-72
2022/06/10 09:40:35;;;;;;;7.18;6.50;;;;;;;25.19;38.11;98939.94;4952337;28;20462;-74
2022/06/10 09:42:22;;;;;;;7.57;6.32;;;;;;;25.27;37.48;98928.13;4969433;28;20070;-73
2022/06/10 09:44:57;;;;;;;6.45;5.85;;;;;;;25.18;39.59;98944.56;4968657;28;20086;-72
2022/06/10 09:48:04;;;;;;;8.63;6.40;;;;;;;25.18;38.54;98941.03;4969601;28;20094;-72
2022/06/10 09:50:47;;;;;;;6.70;6.10;;;;;;;25.21;39.37;98938.44;4964325;28;20133;-72
2022/06/10 09:53:14;;;;;;;8.32;6.25;;;;;;;25.43;37.36;98942.50;4970094;28;20090;-73
2022/06/10 09:55:48;;;;;;;6.93;6.22;;;;;;;25.60;36.45;98935.97;4970121;28;20051;-72
2022/06/10 09:58:32;;;;;;;7.32;6.30;;;;;;;25.68;37.21;98948.59;4969938;28;20098;-72
2022/06/10 10:01:16;;;;;;;8.95;6.30;;;;;;;25.43;37.63;98939.81;4935731;28;20571;-72
2022/06/10 10:04:00;;;;;;;8.15;6.35;;;;;;;25.39;36.93;98944.34;4969315;28;20396;-72
2022/06/10 10:06:28;;;;;;;7.25;6.35;;;;;;;25.32;37.38;98938.72;4969496;28;20062;-73
2022/06/10 10:09:06;;;;;;;7.35;5.90;;;;;;;25.37;37.85;98936.53;4950825;28;20457;-72
2022/06/10 10:11:38;;;;;;;7.22;6.35;;;;;;;25.35;38.28;98959.72;4970373;28;20118;-72
2022/06/10 10:14:10;;;;;;;7.60;5.85;;;;;;;25.40;37.29;98943.22;4970920;28;20458;-71
2022/06/10 10:16:45;;;;;;;7.07;6.45;;;;;;;25.57;37.58;98939.41;4955408;28;20141;-71
2022/06/10 10:19:48;;;;;;;7.10;6.13;;;;;;;25.37;39.04;98943.91;4974381;28;20042;-70
2022/06/10 10:22:28;;;;;;;8.40;6.53;;;;;;;25.25;37.46;98944.75;4954670;28;20090;-70
2022/06/10 10:24:54;;;;;;;9.23;6.43;;;;;;;25.39;37.70;98941.66;4973293;28;20138;-69
2022/06/10 10:27:24;;;;;;;7.53;5.28;;;;;;;25.56;36.83;98940.50;4939787;28;20050;-71
2022/06/10 10:29:54;;;;;;;9.25;6.25;;;;;;;25.54;36.77;98946.31;4940953;28;20039;-69
2022/06/10 10:32:24;;;;;;;6.25;4.95;;;;;;;25.48;35.44;98936.84;4955853;28;20046;-69
2022/06/10 10:35:00;;;;;;;5.43;4.90;;;;;;;25.45;35.85;98950.31;4938397;28;20043;-68
2022/06/10 10:37:29;;;;;;;5.90;5.30;;;;;;;25.57;36.62;98942.13;4954516;28;20419;-69
2022/06/10 10:40:05;;;;;;;6.18;5.25;;;;;;;25.83;35.57;98947.06;4971321;28;20038;-68
2022/06/10 10:42:34;;;;;;;8.43;5.32;;;;;;;25.87;35.75;98937.09;4973116;28;20050;-70
2022/06/10 10:45:08;;;;;;;6.67;5.73;;;;;;;25.97;37.03;98943.91;4942706;28;20046;-69
2022/06/10 10:47:36;;;;;;;5.80;5.30;;;;;;;26.03;34.79;98937.06;4954355;28;20543;-69
2022/06/10 10:50:03;;;;;;;6.15;5.55;;;;;;;26.01;35.45;98934.72;4971825;28;20547;-68
2022/06/10 10:52:30;;;;;;;8.13;5.35;;;;;;;25.94;35.72;98937.28;4971781;28;20061;-70
2022/06/10 10:55:00;;;;;;;8.63;5.25;;;;;;;25.93;35.86;98935.69;4953359;28;20137;-70
2022/06/10 10:57:35;;;;;;;9.98;5.20;;;;;;;25.93;34.86;98932.97;4971681;28;20074;-69
2022/06/10 11:00:04;;;;;;;5.78;5.00;;;;;;;25.85;35.24;98944.00;4955374;28;20090;-70
2022/06/10 11:02:34;;;;;;;8.95;5.38;;;;;;;25.82;35.75;98950.91;4972259;28;20047;-68
2022/06/10 11:05:15;;;;;;;8.88;5.50;;;;;;;25.72;35.82;98943.25;4971914;28;20129;-70
2022/06/10 11:07:42;;;;;;;7.50;5.80;;;;;;;25.70;36.14;98942.81;4971758;28;20416;-70
2022/06/10 11:10:23;;;;;;;6.03;5.40;;;;;;;25.46;36.82;98944.53;4971358;28;20049;-69
2022/06/10 11:12:49;;;;;;;11.20;5.57;;;;;;;25.46;36.87;98949.97;4954752;28;20488;-71
2022/06/10 11:15:28;;;;;;;7.50;6.55;;;;;;;25.66;36.78;98941.94;4949950;28;20133;-74
2022/06/10 11:17:56;;;;;;;5.82;4.97;;;;;;;25.76;35.48;98944.91;4952156;28;20425;-72
2022/06/10 11:20:32;;;;;;;5.30;4.80;;;;;;;25.79;35.43;98951.56;4952335;29;20134;-72
2022/06/10 11:23:21;;;;;;;6.63;4.80;;;;;;;25.89;36.60;98966.63;4951162;28;20477;-73
2022/06/10 11:26:12;;;;;;;6.77;4.93;;;;;;;25.78;35.34;98953.50;4957050;28;20405;-70
2022/06/10 11:28:43;;;;;;;6.85;5.28;;;;;;;25.81;36.25;98955.53;4905032;29;20066;-70
2022/06/10 11:31:20;;;;;;;6.93;5.03;;;;;;;25.77;35.74;98960.09;4950002;29;20467;-71
2022/06/10 11:33:48;;;;;;;6.07;4.90;;;;;;;25.52;36.41;98953.22;4950889;28;20043;-71
2022/06/10 11:36:24;;;;;;;6.70;5.20;;;;;;;25.24;37.59;98950.53;4949935;29;20511;-70
2022/06/10 11:39:10;;;;;;;5.28;4.78;;;;;;;25.08;37.31;98947.72;4951684;28;20047;-70
2022/06/10 11:41:36;;;;;;;7.28;5.00;;;;;;;25.06;37.26;98942.66;4952777;29;20125;-71
2022/06/10 11:44:15;;;;;;;6.15;4.90;;;;;;;25.04;37.62;98934.06;4936216;29;20134;-70
2022/06/10 11:47:00;;;;;;;6.97;5.13;;;;;;;24.99;38.37;98957.91;4933170;29;20051;-71
2022/06/10 11:49:41;;;;;;;6.60;5.32;;;;;;;24.96;37.10;98943.13;4949699;28;20288;-71
2022/06/10 11:52:31;;;;;;;5.78;4.88;;;;;;;25.20;36.78;98939.56;4952693;28;20055;-72
2022/06/10 11:55:10;;;;;;;9.25;5.50;;;;;;;25.47;36.46;98939.88;4951295;29;20447;-72
2022/06/10 12:00:44;;;;;;;6.10;5.50;;;;;;;25.50;36.64;98937.28;4952867;29;19949;-71
2022/06/10 12:03:25;;;;;;;10.02;5.25;;;;;;;25.44;37.55;98941.38;4952439;29;20054;-75